• Join FlightAware (Why Join?)
  • Login
  • US Flag 
12:27AM EDT


 

Airport Tracker/Info


-or-


 

Live Flight TrackerFlight Track Log ✈ UAL5786 ✈ 22-Oct-2013 ✈ CYYT - KEWR

Flight Track Log - Related Links

Times and Time Zones

All times are in EDT time to prevent confusion due to time zone crossing. See the UAL5786 flight status page for this flight to view local times or setup timezone preferences in your user account.

Time Position Orientation Groundspeed Altitude Reporting Facility
EDT Latitude Longitude Course Direction KTS MPH feet Rate Location/Type
07:37AM 47.6333 -52.7167 251° West 160 184 2,200  Level Gander Center
07:38AM 47.6333 -52.8000 270° West 190 219 4,700 1,980 Climbing Gander Center
07:39AM 47.6333 -52.9000 270° West 240 276 6,200 1,860 Climbing Gander Center
07:40AM 47.5411 -53.1370 257° West  Level Estimated
07:40AM 47.6000 -53.0000 244° Southwest 260 299 8,500  Level Gander Center
07:41AM 47.5149 -53.2651 264° West  Level Estimated
07:41AM 47.6000 -53.1000 270° West 270 311 10,700  Level Gander Center
07:42AM 47.4886 -53.3931 263° West  Level Estimated
07:42AM 47.5833 -53.2167 258° West 300 345 11,700  Level Gander Center
07:43AM 47.4597 -53.5197 251° West  Level FlightAware Approximate
07:43AM 47.5667 -53.3833 262° West 330 380 13,200  Level Gander Center
07:44AM 47.5667 -53.5000 270° West 340 391 15,000 1,740 Climbing Gander Center
07:45AM 47.5333 -53.6333 250° West 330 380 16,700 1,620 Climbing Gander Center
07:46AM 47.5333 -53.7500 270° West 330 380 18,300 1,500 Climbing Gander Center
07:47AM 47.5000 -53.9000 252° West 330 380 19,700 1,320 Climbing Gander Center
07:49AM 47.4833 -54.0667 262° West 340 391 21,300 1,320 Climbing Moncton Center
07:50AM 47.4667 -54.2000 260° West 330 380 22,800 1,500 Climbing Moncton Center
07:51AM 47.4333 -54.3333 250° West 330 380 24,300 1,500 Climbing Moncton Center
07:52AM 47.4167 -54.4833 261° West 320 368 25,900 1,500 Climbing Moncton Center
07:53AM 47.4167 -54.5833 270° West 310 357 27,400 1,500 Climbing Moncton Center
07:54AM 47.3833 -54.7167 250° West 290 334 28,900 1,200 Climbing Moncton Center
07:55AM 47.3667 -54.8500 260° West 310 357 29,900 900 Climbing Moncton Center
07:56AM 47.3500 -54.9500 256° West 290 334 30,800 840 Climbing Moncton Center
07:57AM 47.3333 -55.0667 258° West 300 345 31,600 900 Climbing Moncton Center
07:58AM 47.3333 -55.2000 270° West 310 357 32,600 900 Climbing Moncton Center
07:59AM 47.3000 -55.3167 247° West 310 357 33,400 780 Climbing Moncton Center
08:00AM 47.2833 -55.4333 258° West 310 357 34,200 840 Climbing Moncton Center
08:01AM 47.2667 -55.5500 258° West 300 345 35,100 840 Climbing Moncton Center
08:02AM 47.2500 -55.6833 260° West 290 334 35,900 420 Climbing Moncton Center
08:03AM 47.2333 -55.8000 258° West 290 334 36,000  Climbing Moncton Center
08:04AM 47.2167 -55.9167 258° West 300 345 36,000  Level Moncton Center
08:06AM 47.1833 -56.1833 260° West 330 380 36,000  Level Moncton Center
08:07AM 47.1667 -56.3167 260° West 350 403 36,000  Level Moncton Center
08:09AM 47.1167 -56.6167 256° West 370 426 36,000  Level Moncton Center
08:09AM 47.0833 -56.7500 250° West 370 426 36,000  Level Gander Center
08:11AM 47.0667 -56.9167 262° West 380 437 36,000  Level Moncton Center
08:12AM 47.0333 -57.0667 252° West 380 437 36,000  Level Moncton Center
08:13AM 47.0000 -57.2167 252° West 380 437 36,000  Level Moncton Center
08:14AM 46.9833 -57.3667 261° West 380 437 36,000  Level Moncton Center
08:15AM 46.9500 -57.6333 260° West 380 437 36,000  Level Gander Center
08:16AM 46.9167 -57.7833 252° West 370 426 36,000  Level Gander Center
08:17AM 46.9000 -57.9333 261° West 370 426 36,000  Level Gander Center
08:19AM 46.8500 -58.1333 250° West 380 437 36,000  Level Moncton Center
08:20AM 46.8167 -58.3833 259° West 370 426 36,000  Level Gander Center
08:21AM 46.8000 -58.5333 261° West 370 426 36,000  Level Gander Center
08:22AM 46.7500 -58.6833 244° Southwest 380 437 36,000  Level Gander Center
08:23AM 46.7000 -58.8000 238° Southwest 390 449 36,000  Level Gander Center
08:25AM 46.6333 -58.9833 242° Southwest 390 449 36,000  Level Moncton Center
08:26AM 46.5833 -59.1167 241° Southwest 380 437 36,000  Level Moncton Center
08:27AM 46.5500 -59.2333 247° West 380 437 36,000  Level Moncton Center
08:28AM 46.5000 -59.3833 244° Southwest 370 426 36,000  Level Moncton Center
08:29AM 46.4333 -59.5167 234° Southwest 370 426 36,000  Level Moncton Center
08:30AM 46.4000 -59.6333 248° West 370 426 36,000  Level Moncton Center
08:31AM 46.3500 -59.7833 244° Southwest 380 437 36,000  Level Moncton Center
08:32AM 46.2833 -59.9167 234° Southwest 380 437 36,000  Level Moncton Center
08:33AM 46.2500 -60.0333 248° West 380 437 36,000  Level Moncton Center
08:34AM 46.2000 -60.1833 244° Southwest 380 437 36,000  Level Moncton Center
08:35AM 46.1333 -60.3167 234° Southwest 380 437 36,000  Level Moncton Center
08:36AM 46.0500 -60.5333 241° Southwest 380 437 36,000  Level Gander Center
08:37AM 46.0000 -60.6833 244° Southwest 390 449 36,000  Level Gander Center
08:39AM 45.9333 -60.8667 242° Southwest 380 437 36,000  Level Moncton Center
08:40AM 45.8833 -60.9833 238° Southwest 370 426 36,000  Level Moncton Center
08:41AM 45.8000 -61.2167 243° Southwest 360 414 36,000  Level Gander Center
08:42AM 45.7500 -61.3333 238° Southwest 360 414 36,000  Level Gander Center
08:44AM 45.6833 -61.5000 240° Southwest 360 414 36,000  Level Moncton Center
08:45AM 45.6333 -61.6167 239° Southwest 360 414 36,000  Level Moncton Center
08:46AM 45.6000 -61.7500 250° West 370 426 36,000  Level Moncton Center
08:47AM 45.5333 -61.8667 231° Southwest 370 426 36,000  Level Moncton Center
08:48AM 45.4833 -61.9833 239° Southwest 370 426 36,000  Level Moncton Center
08:49AM 45.4333 -62.1333 245° Southwest 370 426 36,000  Level Moncton Center
08:50AM 45.3833 -62.2500 239° Southwest 370 426 36,000  Level Moncton Center
08:51AM 45.3333 -62.3667 239° Southwest 370 426 36,000  Level Moncton Center
08:52AM 45.2667 -62.5000 235° Southwest 370 426 36,000  Level Moncton Center
08:53AM 45.2333 -62.6167 248° West 370 426 36,000  Level Moncton Center
08:54AM 45.1833 -62.7667 245° Southwest 370 426 36,000  Level Moncton Center
08:55AM 45.1333 -62.8833 239° Southwest 370 426 36,000  Level Moncton Center
08:56AM 45.0833 -63.0000 239° Southwest 370 426 36,000  Level Moncton Center
08:57AM 45.0167 -63.1167 231° Southwest 370 426 36,000  Level Moncton Center
08:58AM 44.9667 -63.2667 245° Southwest 370 426 36,000  Level Moncton Center
08:59AM 44.9167 -63.3833 239° Southwest 370 426 36,000  Level Moncton Center
09:00AM 44.9000 -63.5167 260° West 360 414 36,000  Level Moncton Center
09:01AM 44.8667 -63.6667 253° West 360 414 36,000  Level Moncton Center
09:02AM 44.8500 -63.7833 259° West 360 414 36,000  Level Moncton Center
09:03AM 44.8333 -63.9333 261° West 360 414 36,000  Level Moncton Center
09:04AM 44.8167 -64.0667 260° West 350 403 36,000  Level Moncton Center
09:05AM 44.8000 -64.2167 261° West 350 403 36,000  Level Moncton Center
09:06AM 44.7833 -64.3500 260° West 360 414 36,000  Level Moncton Center
09:07AM 44.7667 -64.4833 260° West 360 414 36,000  Level Moncton Center
09:09AM 44.7333 -64.7500 260° West 360 414 36,000  Level Moncton Center
09:10AM 44.7167 -64.8833 260° West 360 414 36,000  Level Moncton Center
09:11AM 44.6833 -65.0333 253° West 360 414 36,000  Level Moncton Center
09:12AM 44.6667 -65.1667 260° West 360 414 36,000  Level Moncton Center
09:13AM 44.6500 -65.3167 261° West 360 414 36,000  Level Moncton Center
09:14AM 44.6333 -65.4500 260° West 360 414 36,000  Level Moncton Center
09:15AM 44.6167 -65.6000 261° West 360 414 36,000  Level Moncton Center
09:16AM 44.6000 -65.7167 259° West 360 414 36,000  Level Moncton Center
09:17AM 44.5833 -65.8833 262° West 370 426 36,000  Level Moncton Center
09:18AM 44.5667 -66.0000 259° West 370 426 36,000  Level Moncton Center
09:19AM 44.5333 -66.1500 253° West 360 414 36,000  Level Moncton Center
09:20AM 44.5000 -66.2667 248° West 360 414 36,000  Level Moncton Center
09:21AM 44.4833 -66.4167 261° West 360 414 36,000  Level Moncton Center
09:22AM 44.4667 -66.5500 260° West 350 403 36,000  Level Moncton Center
09:23AM 44.4500 -66.7000 261° West 350 403 36,000  Level Moncton Center
09:24AM 44.4333 -66.8167 259° West 350 403 36,000  Level Moncton Center
09:25AM 44.4000 -66.9500 251° West 360 414 36,000  Level Moncton Center
09:26AM 44.3833 -67.0833 260° West 360 414 36,000  Level Moncton Center
09:27AM 44.3667 -67.2333 261° West 360 414 36,000  Level Moncton Center
09:28AM 44.3500 -67.3667 260° West 360 414 36,000  Level Moncton Center
09:29AM 44.3333 -67.5000 260° West 360 414 36,000  Level Moncton Center
09:30AM 44.3000 -67.6500 253° West 360 414 36,000  Level Moncton Center
09:31AM 44.2833 -67.7833 260° West 360 414 36,000  Level Moncton Center
09:32AM 44.2667 -67.9167 260° West 360 414 36,000  Level Moncton Center
09:33AM 44.2500 -68.0667 261° West 370 426 36,000  Level Moncton Center
09:34AM 44.2000 -68.2000 242° Southwest 370 426 36,000  Level Moncton Center
09:35AM 44.1833 -68.3333 260° West 370 426 36,000  Level Moncton Center
09:36AM 44.1667 -68.4833 261° West 370 426 36,000  Level Moncton Center
09:36AM 44.1756 -68.5211 288° West 369 425 36,000  Level Boston Center
09:37AM 44.1492 -68.6833 257° West 370 426 36,000  Level Boston Center
09:38AM 44.1244 -68.8239 256° West 371 427 36,000  Level Boston Center
09:39AM 44.1008 -68.9650 257° West 371 427 36,000  Level Boston Center
09:40AM 44.0764 -69.1025 256° West 365 420 36,000  Level Boston Center
09:41AM 44.0533 -69.2361 257° West 354 407 36,000  Level Boston Center
09:42AM 44.0317 -69.3689 257° West 354 407 36,000  Level Boston Center
09:43AM 44.0064 -69.5028 255° West 353 406 36,000  Level Boston Center
09:44AM 43.9831 -69.6400 257° West 360 414 36,000  Level Boston Center
09:45AM 43.9583 -69.7792 256° West 366 421 36,000  Level Boston Center
09:46AM 43.9339 -69.9164 256° West 366 421 36,000  Level Boston Center
09:47AM 43.9089 -70.0544 256° West 366 421 36,000  Level Boston Center
09:48AM 43.8839 -70.1958 256° West 373 429 36,000  Level Boston Center
09:49AM 43.8597 -70.3339 256° West 369 425 36,000  Level Boston Center
09:50AM 43.8344 -70.4703 256° West 366 421 36,000  Level Boston Center
09:51AM 43.8078 -70.6075 255° West 367 422 36,000  Level Boston Center
09:52AM 43.7817 -70.7444 255° West 366 421 36,000  Level Boston Center
09:53AM 43.7550 -70.8806 255° West 366 421 36,000  Level Boston Center
09:54AM 43.7292 -71.0186 256° West 368 423 36,000  Level Boston Center
09:55AM 43.6978 -71.1828 255° West 367 422 36,000  Level Boston Center
09:56AM 43.6708 -71.3178 255° West 364 419 36,000  Level Boston Center
09:57AM 43.6442 -71.4361 253° West 364 419 36,000  Level Boston Center
09:59AM 43.6194 -71.5664 255° West 356 410 36,000  Level Boston Center
10:00AM 43.5925 -71.6969 254° West 356 410 36,000  Level Boston Center
10:01AM 43.5669 -71.8267 255° West 353 406 36,000  Level Boston Center
10:02AM 43.5381 -71.9864 256° West 358 412 36,000  Level Boston Center
10:03AM 43.5119 -72.1153 254° West 352 405 36,000  Level Boston Center
10:04AM 43.4858 -72.2439 254° West 350 403 36,000  Level Boston Center
10:05AM 43.4592 -72.3747 254° West 355 409 36,000  Level Boston Center
10:06AM 43.4333 -72.5019 254° West 351 404 36,000  Level Boston Center
10:07AM 43.4075 -72.6272 254° West 346 398 36,000 -540 Level Boston Center
10:08AM 43.3814 -72.7542 254° West 346 398 35,000 -1,560 Descending Boston Center
10:09AM 43.3542 -72.8814 254° West 348 400 32,900 -2,220 Descending Boston Center
10:10AM 43.3214 -73.0394 254° West 356 410 30,500 -2,160 Descending Boston Center
10:11AM 43.2928 -73.1744 254° West 365 420 28,500 -2,040 Descending Boston Center
10:12AM 43.2647 -73.3067 254° West 366 421 26,400 -1,980 Descending Boston Center
10:13AM 43.2378 -73.4339 254° West 367 422 24,600 -1,200 Descending Boston Center
10:14AM 43.2114 -73.5533 253° West 342 394 24,000 -1,080 Descending Boston Center
10:15AM 43.1278 -73.6444 219° Southwest 341 392 22,400 -1,680 Descending Boston Center
10:16AM 43.0497 -73.6753 196° South 351 404 20,700 -2,040 Descending Boston Center
10:17AM 42.9444 -73.7206 197° South 337 388 18,300 -2,280 Descending Boston Center
10:18AM 42.8550 -73.7581 197° South 336 387 16,100 -1,140 Descending Boston Center
10:19AM 42.7667 -73.7964 198° South 337 388 16,000 -60 Descending Boston Center
10:20AM 42.6744 -73.8358 197° South 334 384 16,000  Level Boston Center
10:21AM 42.5761 -73.8800 198° South 344 396 16,000  Level Boston Center
10:22AM 42.4856 -73.9208 198° South 343 395 16,000  Level Boston Center
10:23AM 42.3944 -73.9603 198° South 344 396 16,000  Level Boston Center
10:24AM 42.3039 -74.0017 199° South 343 395 16,000  Level Boston Center
10:25AM 42.2069 -74.0456 199° South 342 394 16,000  Level Boston Center
10:26AM 42.1150 -74.0864 198° South 352 405 16,000  Level Boston Center
10:27AM 42.0250 -74.1253 198° South 343 395 16,000 -180 Level Boston Center
10:28AM 41.9347 -74.1639 198° South 342 394 15,700 -1,140 Descending Boston Center
10:29AM 41.8392 -74.2058 198° South 336 387 13,800 -1,800 Descending Boston Center
10:30AM 41.7533 -74.2428 198° South 327 376 12,100 -1,440 Descending Boston Center
10:31AM 41.6792 -74.2747 198° South 283 326 10,900 -1,200 Descending Boston Center
10:32AM 41.6094 -74.3044 198° South 247 284 9,600 -960 Descending Boston Center
10:33AM 41.5497 -74.3308 198° South 229 264 9,000 -600 Descending Boston Center
10:34AM 41.4878 -74.3578 198° South 235 270 8,500 -1,020 Descending Boston Center
10:35AM 41.4219 -74.3864 198° South 233 268 7,000 -780 Descending Boston Center
10:36AM 41.3575 -74.3722 171° South 258 297 7,000 -540 Level Boston Center
10:37AM 41.3167 -74.3500 158° South 257 296 6,200 -660 Descending New York TRACON
10:38AM 41.2500 -74.3000 151° Southeast 267 307 6,000 -600 Descending New York TRACON
10:39AM 41.1833 -74.2667 159° South 265 305 5,000 -540 Descending New York TRACON
10:40AM 41.1167 -74.2333 159° South 264 304 5,000 -420 Level New York TRACON
10:41AM 41.0500 -74.1833 151° Southeast 261 300 4,200 -540 Descending New York TRACON
10:42AM 40.9833 -74.1500 159° South 272 313 4,000 -540 Descending New York TRACON
10:43AM 40.8883 -74.0875 154° Southeast 267 307 2,900 -600 Descending Boston Center
10:44AM 40.8258 -74.0828 177° South 244 281 2,500 -540 Descending Boston Center
10:45AM 40.7686 -74.0892 185° South 211 243 1,800 -660 Descending Boston Center
10:47AM 40.7167 -74.1000 189° South 145 167 1,000 -660 Descending New York TRACON
10:48AM 40.7000 -74.1500 246° West 137 158 300 -780 Descending New York TRACON